createdAt,value
2023-05-08T00:05:10.420Z,72.89
2023-05-08T00:15:16.449Z,72.78
2023-05-08T00:25:22.001Z,72.81
2023-05-08T00:35:27.574Z,72.97
2023-05-08T00:45:33.216Z,72.95
2023-05-08T00:55:38.898Z,73.01
2023-05-08T01:05:44.254Z,72.99
2023-05-08T01:15:49.967Z,72.89
2023-05-08T01:25:55.521Z,73.08
2023-05-08T01:36:00.991Z,73.13
2023-05-08T01:46:06.107Z,73.20
2023-05-08T01:56:11.574Z,73.10
2023-05-08T02:06:17.014Z,73.39
2023-05-08T02:16:22.695Z,73.21
2023-05-08T02:26:28.431Z,73.51
2023-05-08T02:36:34.332Z,73.29
2023-05-08T02:46:39.937Z,73.15
2023-05-08T02:56:45.800Z,72.94
2023-05-08T03:06:51.555Z,73.02
2023-05-08T03:16:56.930Z,72.05
2023-05-08T03:27:02.265Z,71.87
2023-05-08T03:37:07.659Z,71.46
2023-05-08T03:47:13.424Z,72.03
2023-05-08T03:57:19.378Z,71.09
2023-05-08T04:07:24.833Z,71.79
2023-05-08T04:17:30.239Z,71.83
2023-05-08T04:27:35.427Z,63.12
2023-05-08T04:37:40.828Z,65.92
2023-05-08T04:47:44.522Z,67.96
2023-05-08T04:57:50.778Z,70.19
2023-05-08T05:07:56.301Z,70.32
2023-05-08T05:18:02.123Z,69.49
2023-05-08T05:28:09.106Z,68.50
2023-05-08T05:38:15.230Z,66.82
2023-05-08T05:48:21.138Z,65.74
2023-05-08T05:58:26.512Z,64.90
2023-05-08T06:08:31.886Z,64.97
2023-05-08T06:18:37.484Z,63.22
2023-05-08T06:28:42.877Z,63.84
2023-05-08T06:38:48.449Z,63.98
2023-05-08T06:48:53.647Z,64.64
2023-05-08T06:59:07.972Z,65.28
2023-05-08T07:09:09.531Z,66.44
2023-05-08T07:19:15.596Z,66.90
2023-05-08T07:29:21.095Z,67.56
2023-05-08T07:39:26.764Z,67.59
2023-05-08T07:49:33.103Z,67.27
2023-05-08T07:59:38.823Z,67.55
2023-05-08T08:09:45.426Z,67.12
2023-05-08T08:19:51.690Z,66.46
2023-05-08T08:30:08.628Z,66.29
2023-05-08T08:40:08.974Z,66.23
2023-05-08T08:50:15.154Z,66.33
2023-05-08T09:00:20.910Z,66.24
2023-05-08T09:10:26.822Z,66.23
2023-05-08T09:20:32.808Z,66.18
2023-05-08T09:30:38.783Z,65.87
2023-05-08T09:40:44.642Z,66.04
2023-05-08T09:50:50.627Z,66.20
2023-05-08T10:00:58.610Z,66.04
2023-05-08T10:11:04.711Z,66.04
2023-05-08T10:21:10.411Z,66.11
2023-05-08T10:31:16.398Z,66.18
2023-05-08T10:41:22.557Z,66.14
2023-05-08T10:51:28.237Z,66.14
2023-05-08T11:01:34.189Z,66.09
2023-05-08T11:11:40.050Z,66.20
2023-05-08T11:21:45.836Z,66.07
2023-05-08T11:31:51.437Z,66.09
2023-05-08T11:41:56.960Z,66.36
2023-05-08T11:52:02.644Z,66.60
2023-05-08T12:02:09.754Z,66.69
2023-05-08T12:12:15.689Z,66.84
2023-05-08T12:22:20.450Z,66.94
2023-05-08T12:32:27.721Z,67.05
2023-05-08T12:42:34.694Z,67.16
2023-05-08T12:52:40.351Z,67.20
2023-05-08T13:02:49.461Z,67.29
2023-05-08T13:12:55.739Z,67.43
2023-05-08T13:23:01.732Z,67.51
2023-05-08T13:33:07.523Z,67.63
2023-05-08T13:43:13.219Z,67.67
2023-05-08T13:54:38.504Z,67.64
2023-05-08T14:04:43.658Z,67.75
2023-05-08T14:14:49.740Z,67.89
2023-05-08T14:24:55.725Z,67.86
2023-05-08T14:35:01.564Z,67.92
2023-05-08T14:47:46.476Z,67.83
2023-05-08T14:57:51.447Z,67.86
2023-05-08T15:07:56.931Z,67.95
2023-05-08T15:18:02.379Z,68.07
2023-05-08T15:28:07.713Z,68.20
2023-05-08T15:38:13.027Z,68.21
2023-05-08T15:48:18.856Z,68.13
2023-05-08T15:58:24.807Z,68.15
2023-05-08T16:08:30.788Z,68.22
2023-05-08T16:19:56.000Z,68.22
2023-05-08T16:30:00.787Z,68.37
2023-05-08T16:40:06.691Z,68.58
2023-05-08T16:50:12.325Z,68.74
2023-05-08T17:00:18.112Z,68.85
2023-05-08T17:10:23.954Z,68.99
2023-05-08T17:20:29.721Z,69.07
2023-05-08T17:30:35.506Z,69.19
2023-05-08T17:40:40.953Z,69.28
2023-05-08T17:50:46.723Z,69.33
2023-05-08T18:00:52.267Z,68.23
2023-05-08T18:10:59.129Z,62.06
2023-05-08T18:21:04.886Z,60.31
2023-05-08T18:31:10.874Z,58.40
2023-05-08T18:41:16.542Z,58.27
2023-05-08T18:51:22.400Z,58.83
2023-05-08T19:01:30.501Z,60.35
2023-05-08T19:23:23.201Z,64.08
2023-05-08T19:33:28.595Z,65.17
2023-05-08T19:43:41.683Z,65.65
2023-05-08T19:53:47.706Z,66.40
2023-05-08T20:03:53.869Z,66.92
2023-05-08T20:14:00.096Z,67.15
2023-05-08T20:24:06.120Z,67.59
2023-05-08T20:34:11.883Z,67.83
2023-05-08T20:48:16.128Z,68.06
2023-05-08T21:23:32.292Z,68.36
2023-05-08T21:33:36.911Z,69.25
2023-05-08T21:43:43.677Z,69.83
2023-05-08T21:53:49.346Z,70.27
2023-05-08T22:03:55.470Z,70.57
2023-05-08T22:14:01.708Z,71.17
2023-05-08T22:24:07.418Z,71.49
2023-05-08T22:34:13.496Z,71.52
2023-05-08T22:44:19.180Z,71.28
2023-05-08T22:54:25.307Z,71.13
2023-05-08T23:04:30.881Z,71.24
2023-05-08T23:14:37.064Z,71.50
2023-05-08T23:24:42.662Z,72.08
2023-05-08T23:34:48.512Z,72.27
2023-05-08T23:44:54.519Z,72.10
2023-05-08T23:55:00.164Z,72.00
